Home > Products > Valid Products > TAF

000
FTUS45 KPIH 020520
TAFPIH
TAF
KPIH 020520Z 0206/0306 VRB05KT P6SM SCT150=



000
FTUS45 KPIH 020520
TAFIDA
TAF
KIDA 020520Z 0206/0306 VRB05KT P6SM SCT150=



000
FTUS45 KPIH 020520
TAFSUN
TAF
KSUN 020520Z 0206/0306 31009KT P6SM SCT120
     FM021800 16009KT P6SM SCT100
      AMD LTD TO CLD VIS AND WIND TIL 021300=



000
FTUS45 KPIH 020520
TAFBYI
TAF
KBYI 020520Z 0206/0306 VRB05KT P6SM SCT150=



000
FTUS45 KPIH 012325
TAFPIH
TAF
KPIH 012325Z 0200/0224 VRB05KT P6SM SCT150=



000
FTUS45 KPIH 012325
TAFSUN
TAF
KSUN 012325Z 0200/0224 17009KT P6SM SCT120
     FM020300 31009KT P6SM SCT120
      AMD LTD TO CLD VIS AND WIND 0105/0113=



000
FTUS45 KPIH 012325
TAFIDA
TAF
KIDA 012325Z 0200/0224 VRB05KT P6SM SCT150=



000
FTUS45 KPIH 012325
TAFBYI
TAF
KBYI 012325Z 0200/0224 VRB05KT P6SM SCT150=



000
FTUS45 KPIH 012325
TAFSUN
TAF
KSUN 012325Z 0200/0224 17009KT P6SM SCT120
     FM020300 31009KT P6SM SCT120
      AMD LTD TO CLD VIS AND WIND 0105/0113=



000
FTUS45 KPIH 012325
TAFBYI
TAF
KBYI 012325Z 0200/0224 VRB05KT P6SM SCT150=



000
FTUS45 KPIH 012325
TAFPIH
TAF
KPIH 012325Z 0200/0224 VRB05KT P6SM SCT150=



000
FTUS45 KPIH 012325
TAFIDA
TAF
KIDA 012325Z 0200/0224 VRB05KT P6SM SCT150=



000
FTUS45 KPIH 011720
TAFPIH
TAF
KPIH 011720Z 0118/0218 VRB06KT P6SM SKC
     FM011900 34009KT P6SM SCT150
     FM020200 VRB06KT P6SM SCT150=



000
FTUS45 KPIH 011720
TAFPIH
TAF
KPIH 011720Z 0118/0218 VRB06KT P6SM SKC
     FM011900 34009KT P6SM SCT150
     FM020200 VRB06KT P6SM SCT150=



000
FTUS45 KPIH 011720
TAFSUN
TAF
KSUN 011720Z 0118/0218 15009KT P6SM SCT150
     FM020400 31011KT P6SM SCT150=



000
FTUS45 KPIH 011720
TAFBYI
TAF
KBYI 011720Z 0118/0218 VRB06KT P6SM SCT150=



000
FTUS45 KPIH 011720
TAFIDA
TAF
KIDA 011720Z 0118/0218 VRB06KT P6SM SCT150=



000
FTUS45 KPIH 011720
TAFIDA
TAF
KIDA 011720Z 0118/0218 VRB06KT P6SM SCT150=



000
FTUS45 KPIH 011720
TAFSUN
TAF
KSUN 011720Z 0118/0218 15009KT P6SM SCT150
     FM020400 31011KT P6SM SCT150=



000
FTUS45 KPIH 011720
TAFBYI
TAF
KBYI 011720Z 0118/0218 VRB06KT P6SM SCT150=



000
FTUS45 KPIH 011120
TAFSUN
TAF
KSUN 011120Z 0112/0212 32011KT P6SM SKC
     FM011700 15009KT P6SM FEW150
     FM012200 25007KT P6SM FEW150
     FM020400 31011KT P6SM SCT100 SCT250
      AMD LTD TO CLD VIS AND WIND TIL 011300=



000
FTUS45 KPIH 011120
TAFPIH
TAF
KPIH 011120Z 0112/0212 VRB06KT P6SM SKC
     FM011900 34009KT P6SM FEW120
     FM020200 VRB06KT P6SM SKC=



000
FTUS45 KPIH 011120
TAFPIH
TAF
KPIH 011120Z 0112/0212 VRB06KT P6SM SKC
     FM011900 34009KT P6SM FEW120
     FM020200 VRB06KT P6SM SKC=



000
FTUS45 KPIH 011120
TAFIDA
TAF
KIDA 011120Z 0112/0212 VRB06KT P6SM SKC=



000
FTUS45 KPIH 011120
TAFBYI
TAF
KBYI 011120Z 0112/0212 VRB05KT P6SM SKC=



000
FTUS45 KPIH 011120
TAFIDA
TAF
KIDA 011120Z 0112/0212 VRB06KT P6SM SKC=



000
FTUS45 KPIH 011120
TAFSUN
TAF
KSUN 011120Z 0112/0212 32011KT P6SM SKC
     FM011700 15009KT P6SM FEW150
     FM012200 25007KT P6SM FEW150
     FM020400 31011KT P6SM SCT100 SCT250
      AMD LTD TO CLD VIS AND WIND TIL 011300=



000
FTUS45 KPIH 011120
TAFBYI
TAF
KBYI 011120Z 0112/0212 VRB05KT P6SM SKC=



000
FTUS45 KPIH 010520
TAFPIH
TAF
KPIH 010520Z 0106/0206 VRB04KT P6SM SKC
     FM011800 34007KT P6SM FEW120=



000
FTUS45 KPIH 010520
TAFSUN
TAF
KSUN 010520Z 0106/0206 31008KT P6SM FEW110
     FM011800 15007KT P6SM FEW100
     FM012200 25007KT P6SM FEW100
     FM020400 31008KT P6SM FEW110 FEW250
      AMD LTD TO CLD VIS AND WIND TIL 011300=



000
FTUS45 KPIH 010520
TAFPIH
TAF
KPIH 010520Z 0106/0206 VRB04KT P6SM SKC
     FM011800 34007KT P6SM FEW120=



000
FTUS45 KPIH 010520
TAFSUN
TAF
KSUN 010520Z 0106/0206 31008KT P6SM FEW110
     FM011800 15007KT P6SM FEW100
     FM012200 25007KT P6SM FEW100
     FM020400 31008KT P6SM FEW110 FEW250
      AMD LTD TO CLD VIS AND WIND TIL 011300=



000
FTUS45 KPIH 010520
TAFBYI
TAF
KBYI 010520Z 0106/0206 VRB03KT P6SM SKC
     FM011100 08007KT P6SM FEW200
     FM020300 19007KT P6SM FEW120 SCT200=



000
FTUS45 KPIH 010520
TAFBYI
TAF
KBYI 010520Z 0106/0206 VRB03KT P6SM SKC
     FM011100 08007KT P6SM FEW200
     FM020300 19007KT P6SM FEW120 SCT200=



000
FTUS45 KPIH 010520
TAFIDA
TAF
KIDA 010520Z 0106/0206 36007KT P6SM FEW110
     FM011100 VRB04KT P6SM SKC=



000
FTUS45 KPIH 010520
TAFIDA
TAF
KIDA 010520Z 0106/0206 36007KT P6SM FEW110
     FM011100 VRB04KT P6SM SKC=



000
FTUS45 KPIH 312320
TAFIDA
TAF
KIDA 312320Z 0100/0124 VRB05KT P6SM FEW110=



000
FTUS45 KPIH 312320
TAFBYI
TAF
KBYI 312320Z 0100/0124 VRB04KT P6SM SKC=



000
FTUS45 KPIH 312320
TAFSUN
TAF
KSUN 312320Z 0100/0124 25008KT P6SM FEW110
     FM010400 30008KT P6SM FEW100
     FM011800 15007KT P6SM FEW100 FEW250
      AMD LTD TO CLD VIS AND WIND 0105/0113=



000
FTUS45 KPIH 312320
TAFPIH
TAF
KPIH 312320Z 0100/0124 VRB05KT P6SM FEW100=



000
FTUS45 KPIH 311722
TAFSUN
TAF
KSUN 311722Z 3118/0118 15006KT P6SM FEW200
     FM010300 30010KT P6SM FEW200
     FM011700 15007KT P6SM FEW090 SCT200=



000
FTUS45 KPIH 311722
TAFPIH
TAF
KPIH 311722Z 3118/0118 VRB06KT P6SM FEW200=



000
FTUS45 KPIH 311722
TAFBYI
TAF
KBYI 311722Z 3118/0118 VRB06KT P6SM FEW200=



000
FTUS45 KPIH 311722
TAFIDA
TAF
KIDA 311722Z 3118/0118 VRB05KT P6SM FEW200=



000
FTUS45 KPIH 311120
TAFSUN
TAF
KSUN 311120Z 3112/0112 31010KT P6SM SKC
     FM311700 15006KT P6SM FEW200
     FM010300 30010KT P6SM SKC
      AMD LTD TO CLD VIS AND WIND TIL 311300=



000
FTUS45 KPIH 311120
TAFBYI
TAF
KBYI 311120Z 3112/0112 VRB06KT P6SM FEW200=



000
FTUS45 KPIH 311120
TAFPIH
TAF
KPIH 311120Z 3112/0112 VRB06KT P6SM FEW200=



000
FTUS45 KPIH 311120
TAFIDA
TAF
KIDA 311120Z 3112/0112 VRB05KT P6SM FEW200=



000
FTUS45 KPIH 310520
TAFPIH
TAF
KPIH 310520Z 3106/0106 VRB06KT P6SM FEW200=



000
FTUS45 KPIH 310520
TAFSUN
TAF
KSUN 310520Z 3106/0106 30010KT P6SM SKC
     FM311700 15008KT P6SM FEW090 SCT200
     FM010300 30010KT P6SM SCT200
      AMD LTD TO CLD VIS AND WIND TIL 311300=



000
FTUS45 KPIH 310520
TAFIDA
TAF
KIDA 310520Z 3106/0106 VRB05KT P6SM FEW200=



000
FTUS45 KPIH 310520
TAFPIH
TAF
KPIH 310520Z 3106/0106 VRB06KT P6SM FEW200=



000
FTUS45 KPIH 310520
TAFSUN
TAF
KSUN 310520Z 3106/0106 30010KT P6SM SKC
     FM311700 15008KT P6SM FEW090 SCT200
     FM010300 30010KT P6SM SCT200
      AMD LTD TO CLD VIS AND WIND TIL 311300=



000
FTUS45 KPIH 310520
TAFIDA
TAF
KIDA 310520Z 3106/0106 VRB05KT P6SM FEW200=



000
FTUS45 KPIH 310520
TAFBYI
TAF
KBYI 310520Z 3106/0106 VRB04KT P6SM FEW200=



000
FTUS45 KPIH 310520
TAFBYI
TAF
KBYI 310520Z 3106/0106 VRB04KT P6SM FEW200=



000
FTUS45 KPIH 302320
TAFIDA
TAF
KIDA 302320Z 3100/3124 VRB05KT P6SM SKC=



000
FTUS45 KPIH 302320
TAFPIH
TAF
KPIH 302320Z 3100/3124 VRB06KT P6SM SKC=



000
FTUS45 KPIH 302320
TAFBYI
TAF
KBYI 302320Z 3100/3124 VRB04KT P6SM SKC=



000
FTUS45 KPIH 302320
TAFSUN
TAF
KSUN 302320Z 3100/3124 15007KT P6SM SKC
     FM310400 30010KT P6SM SKC
     FM311700 15007KT P6SM FEW090
      AMD LTD TO CLD VIS AND WIND 3105/3113=



000
FTUS45 KPIH 301726
TAFIDA
TAF
KIDA 301726Z 3018/3118 23007KT P6SM SKC=



000
FTUS45 KPIH 301726
TAFSUN
TAF
KSUN 301726Z 3018/3118 15007KT P6SM SKC
     FM310400 30010KT P6SM FEW090=



000
FTUS45 KPIH 301726
TAFBYI
TAF
KBYI 301726Z 3018/3118 36007KT P6SM SKC=



000
FTUS45 KPIH 301726
TAFPIH
TAF
KPIH 301726Z 3018/3118 31007KT P6SM SKC=



000
FTUS45 KPIH 301120
TAFIDA
TAF
KIDA 301120Z 3012/3112 VRB06KT P6SM SKC=



000
FTUS45 KPIH 301120
TAFBYI
TAF
KBYI 301120Z 3012/3112 VRB04KT P6SM SKC=



000
FTUS45 KPIH 301120
TAFPIH
TAF
KPIH 301120Z 3012/3112 VRB06KT P6SM SKC=



000
FTUS45 KPIH 301120
TAFSUN
TAF
KSUN 301120Z 3012/3112 31010KT P6SM SKC
     FM301700 15006KT P6SM SKC
     FM310400 30010KT P6SM SKC
      AMD LTD TO CLD VIS AND WIND TIL 301300=



    US Dept of Commerce
    National Oceanic and Atmospheric Administration
    National Weather Service
    1325 East West Highway
    Silver Spring, MD 20910
    Page Author: NWS Internet Services Team
Disclaimer
Information Quality
Credits
Glossary
Privacy Policy
Freedom of Information Act (FOIA)
About Us
Career Opportunities